createdAt,value
2022-12-31T00:00:49.943Z,98848.41
2022-12-31T00:03:30.034Z,98844.00
2022-12-31T00:05:57.733Z,98842.45
2022-12-31T00:08:25.538Z,98828.61
2022-12-31T00:10:53.391Z,98816.34
2022-12-31T00:13:21.673Z,98815.35
2022-12-31T00:15:49.334Z,98812.73
2022-12-31T00:18:17.002Z,98809.44
2022-12-31T00:20:44.676Z,98806.60
2022-12-31T00:23:12.500Z,98807.75
2022-12-31T00:25:40.126Z,98814.27
2022-12-31T00:28:07.926Z,98808.26
2022-12-31T00:30:35.703Z,98811.76
2022-12-31T00:33:03.470Z,98820.52
2022-12-31T00:35:31.537Z,98810.73
2022-12-31T00:37:59.248Z,98814.23
2022-12-31T00:40:29.090Z,98812.34
2022-12-31T00:42:56.709Z,98822.96
2022-12-31T00:45:24.478Z,98819.49
2022-12-31T00:47:52.175Z,98815.27
2022-12-31T00:50:19.802Z,98818.47
2022-12-31T00:52:47.439Z,98816.02
2022-12-31T00:55:15.188Z,98810.19
2022-12-31T00:57:43.084Z,98811.89
2022-12-31T01:00:11.525Z,98806.25
2022-12-31T01:02:39.376Z,98809.71
2022-12-31T01:05:08.170Z,98816.98
2022-12-31T01:07:37.982Z,98811.70
2022-12-31T01:10:06.205Z,98800.17
2022-12-31T01:12:33.885Z,98798.40
2022-12-31T01:15:01.749Z,98801.17
2022-12-31T01:17:29.580Z,98794.71
2022-12-31T01:19:57.257Z,98795.42
2022-12-31T01:22:24.899Z,98807.39
2022-12-31T01:24:52.566Z,98806.73
2022-12-31T01:27:20.232Z,98805.65
2022-12-31T01:29:47.999Z,98795.89
2022-12-31T01:32:15.651Z,98801.06
2022-12-31T01:34:43.432Z,98783.69
2022-12-31T01:37:11.164Z,98791.15
2022-12-31T01:39:38.826Z,98782.96
2022-12-31T01:42:06.495Z,98787.05
2022-12-31T01:44:48.567Z,98787.45
2022-12-31T01:47:19.657Z,98784.88
2022-12-31T01:50:03.376Z,98788.52
2022-12-31T01:52:34.778Z,98781.35
2022-12-31T01:55:07.988Z,98770.30
2022-12-31T01:57:36.473Z,98766.41
2022-12-31T02:00:05.909Z,98753.61
2022-12-31T02:02:34.299Z,98742.53
2022-12-31T02:05:06.140Z,98740.77
2022-12-31T02:07:33.858Z,98740.54
2022-12-31T02:10:01.784Z,98743.48
2022-12-31T02:12:29.590Z,98746.98
2022-12-31T02:14:57.533Z,98749.38
2022-12-31T02:17:33.704Z,98750.85
2022-12-31T02:20:26.617Z,98746.82
2022-12-31T02:22:57.018Z,98758.00
2022-12-31T02:25:59.195Z,98757.23
2022-12-31T02:29:02.833Z,98757.85
2022-12-31T02:31:35.250Z,98760.31
2022-12-31T02:34:09.073Z,98757.73
2022-12-31T02:36:40.257Z,98756.45
2022-12-31T02:39:08.239Z,98759.56
2022-12-31T02:41:51.322Z,98744.89
2022-12-31T02:44:34.047Z,98739.88
2022-12-31T02:47:08.049Z,98741.69
2022-12-31T02:50:10.141Z,98746.73
2022-12-31T02:53:02.644Z,98744.45
2022-12-31T02:55:52.520Z,98741.04
2022-12-31T02:58:46.319Z,98744.95
2022-12-31T03:01:40.200Z,98742.09
2022-12-31T03:04:26.875Z,98741.41
2022-12-31T03:06:54.887Z,98743.25
2022-12-31T03:09:22.652Z,98742.92
2022-12-31T03:12:09.348Z,98737.40
2022-12-31T03:14:38.028Z,98747.45
2022-12-31T03:17:05.663Z,98751.30
2022-12-31T03:19:52.152Z,98759.10
2022-12-31T03:22:28.955Z,98753.15
2022-12-31T03:25:26.186Z,98757.73
2022-12-31T03:27:54.280Z,98752.98
2022-12-31T03:30:23.553Z,98759.19
2022-12-31T03:32:51.802Z,98763.83
2022-12-31T03:35:21.004Z,98765.30
2022-12-31T03:37:49.932Z,98769.20
2022-12-31T03:40:20.600Z,98763.36
2022-12-31T03:42:48.325Z,98771.55
2022-12-31T03:45:16.189Z,98780.06
2022-12-31T03:47:44.461Z,98783.38
2022-12-31T03:50:13.971Z,98780.73
2022-12-31T03:52:41.986Z,98781.77
2022-12-31T03:55:10.471Z,98777.61
2022-12-31T03:57:38.660Z,98779.48
2022-12-31T04:00:09.143Z,98773.39
2022-12-31T04:02:37.336Z,98771.19
2022-12-31T04:05:05.633Z,98779.80
2022-12-31T04:07:33.614Z,98781.73
2022-12-31T04:10:01.503Z,98782.72
2022-12-31T04:12:29.201Z,98785.20
2022-12-31T04:14:57.785Z,98779.95
2022-12-31T04:17:25.809Z,98780.92
2022-12-31T04:19:53.588Z,98787.30
2022-12-31T04:22:21.273Z,98791.36
2022-12-31T04:24:49.072Z,98784.99
2022-12-31T04:27:17.126Z,98788.02
2022-12-31T04:29:44.927Z,98793.08
2022-12-31T04:32:12.704Z,98804.48
2022-12-31T04:34:40.451Z,98799.79
2022-12-31T04:37:08.131Z,98805.06
2022-12-31T04:39:35.808Z,98809.63
2022-12-31T04:42:03.567Z,98807.64
2022-12-31T04:44:31.730Z,98806.41
2022-12-31T04:46:59.409Z,98805.27
2022-12-31T04:49:27.122Z,98805.39
2022-12-31T04:51:54.793Z,98795.54
2022-12-31T04:54:22.619Z,98798.86
2022-12-31T04:56:50.284Z,98794.48
2022-12-31T04:59:17.934Z,98798.20
2022-12-31T05:01:45.646Z,98795.02
2022-12-31T05:04:13.462Z,98801.88
2022-12-31T05:06:41.089Z,98793.38
2022-12-31T05:09:08.834Z,98799.27
2022-12-31T05:11:37.891Z,98789.70
2022-12-31T05:14:05.593Z,98797.71
2022-12-31T05:16:33.364Z,98797.55
2022-12-31T05:19:01.036Z,98796.94
2022-12-31T05:21:28.784Z,98790.80
2022-12-31T05:23:56.601Z,98783.33
2022-12-31T05:26:24.279Z,98785.25
2022-12-31T05:28:51.958Z,98782.31
2022-12-31T05:31:19.739Z,98782.75
2022-12-31T05:33:48.895Z,98783.64
2022-12-31T05:36:16.739Z,98790.05
2022-12-31T05:38:44.410Z,98791.72
2022-12-31T05:41:12.063Z,98795.27
2022-12-31T05:43:39.748Z,98797.57
2022-12-31T05:46:08.412Z,98797.41
2022-12-31T05:48:36.125Z,98794.38
2022-12-31T05:51:03.936Z,98801.23
2022-12-31T05:53:31.624Z,98804.13
2022-12-31T05:55:59.252Z,98805.05
2022-12-31T05:58:26.984Z,98802.97
2022-12-31T06:00:54.739Z,98800.84
2022-12-31T06:03:22.650Z,98805.42
2022-12-31T06:05:50.895Z,98808.53
2022-12-31T06:08:18.629Z,98804.96
2022-12-31T06:10:46.274Z,98804.98
2022-12-31T06:13:13.948Z,98806.11
2022-12-31T06:15:41.689Z,98812.05
2022-12-31T06:18:09.471Z,98818.50
2022-12-31T06:20:38.284Z,98821.13
2022-12-31T06:23:06.026Z,98822.19
2022-12-31T06:25:35.352Z,98824.77
2022-12-31T06:28:04.486Z,98820.55
2022-12-31T06:30:32.408Z,98821.45
2022-12-31T06:33:00.113Z,98824.31
2022-12-31T06:35:27.861Z,98828.41
2022-12-31T06:37:55.522Z,98828.36
2022-12-31T06:40:23.204Z,98819.77
2022-12-31T06:42:55.999Z,98816.98
2022-12-31T06:45:28.218Z,98813.84
2022-12-31T06:47:55.903Z,98809.75
2022-12-31T06:50:23.552Z,98808.93
2022-12-31T06:52:51.193Z,98810.91
2022-12-31T06:55:19.302Z,98811.73
2022-12-31T06:57:47.326Z,98811.35
2022-12-31T07:00:15.942Z,98826.44
2022-12-31T07:02:46.768Z,98835.80
2022-12-31T07:05:28.474Z,98833.24
2022-12-31T07:08:09.706Z,98838.27
2022-12-31T07:10:53.909Z,98842.89
2022-12-31T07:13:45.225Z,98838.89
2022-12-31T07:17:02.505Z,98835.20
2022-12-31T07:19:33.164Z,98838.42
2022-12-31T07:22:00.944Z,98839.73
2022-12-31T07:24:28.873Z,98834.87
2022-12-31T07:26:57.214Z,98828.48
2022-12-31T07:29:55.945Z,98827.14
2022-12-31T07:32:35.664Z,98825.94
2022-12-31T07:35:15.682Z,98825.00
2022-12-31T07:37:55.550Z,98827.76
2022-12-31T07:40:46.222Z,98838.98
2022-12-31T07:43:33.209Z,98846.48
2022-12-31T07:46:13.808Z,98848.11
2022-12-31T07:48:41.726Z,98859.98
2022-12-31T07:51:10.871Z,98865.14
2022-12-31T07:53:40.465Z,98866.79
2022-12-31T07:56:09.078Z,98863.18
2022-12-31T07:58:54.945Z,98861.98
2022-12-31T08:01:44.443Z,98866.41
2022-12-31T08:04:21.970Z,98864.23
2022-12-31T08:07:07.368Z,98859.73
2022-12-31T08:09:37.740Z,98867.14
2022-12-31T08:12:07.114Z,98861.12
2022-12-31T08:14:40.148Z,98868.48
2022-12-31T08:17:12.498Z,98870.64
2022-12-31T08:19:42.440Z,98864.36
2022-12-31T08:22:30.963Z,98857.55
2022-12-31T08:25:11.793Z,98858.61
2022-12-31T08:28:17.845Z,98850.31
2022-12-31T08:31:15.729Z,98854.86
2022-12-31T08:33:45.352Z,98852.48
2022-12-31T08:36:19.151Z,98852.94
2022-12-31T08:39:26.209Z,98850.27
2022-12-31T08:41:56.637Z,98849.77
2022-12-31T08:44:36.654Z,98852.30
2022-12-31T08:47:13.563Z,98853.89
2022-12-31T08:49:42.275Z,98856.75
2022-12-31T08:52:22.061Z,98863.62
2022-12-31T08:54:50.024Z,98859.84
2022-12-31T08:57:39.725Z,98867.09
2022-12-31T09:00:16.404Z,98875.59
2022-12-31T09:02:57.999Z,98876.27
2022-12-31T09:05:28.676Z,98871.92
2022-12-31T09:08:13.559Z,98869.75
2022-12-31T09:11:05.894Z,98859.00
2022-12-31T09:14:11.473Z,98874.59
2022-12-31T09:16:48.114Z,98874.40
2022-12-31T09:19:15.810Z,98886.82
2022-12-31T09:21:46.598Z,98890.54
2022-12-31T09:24:15.572Z,98887.41
2022-12-31T09:27:06.650Z,98887.77
2022-12-31T09:29:53.732Z,98889.67
2022-12-31T09:32:28.455Z,98871.76
2022-12-31T09:35:11.317Z,98853.70
2022-12-31T09:37:46.420Z,98839.36
2022-12-31T09:40:32.403Z,98828.63
2022-12-31T09:43:09.397Z,98835.12
2022-12-31T09:46:00.357Z,98836.30
2022-12-31T09:48:33.094Z,98842.79
2022-12-31T09:51:25.269Z,98847.26
2022-12-31T09:54:29.732Z,98842.95
2022-12-31T09:57:13.175Z,98844.35
2022-12-31T09:59:48.520Z,98844.52
2022-12-31T10:02:39.287Z,98844.67
2022-12-31T10:05:27.621Z,98840.61
2022-12-31T10:08:20.374Z,98834.09
2022-12-31T10:10:54.381Z,98825.41
2022-12-31T10:13:28.797Z,98828.41
2022-12-31T10:16:08.169Z,98820.27
2022-12-31T10:18:53.717Z,98823.19
2022-12-31T10:21:46.258Z,98828.24
2022-12-31T10:24:35.905Z,98832.90
2022-12-31T10:27:21.846Z,98830.38
2022-12-31T10:30:13.445Z,98819.42
2022-12-31T10:32:59.043Z,98813.29
2022-12-31T10:36:09.183Z,98825.94
2022-12-31T10:38:51.579Z,98833.54
2022-12-31T10:41:44.835Z,98823.91
2022-12-31T10:44:23.584Z,98820.16
2022-12-31T10:47:19.462Z,98817.25
2022-12-31T10:50:27.715Z,98809.13
2022-12-31T10:53:14.231Z,98806.09
2022-12-31T10:55:47.629Z,98810.27
2022-12-31T10:58:36.985Z,98820.77
2022-12-31T11:01:28.598Z,98821.28
2022-12-31T11:04:14.489Z,98821.90
2022-12-31T11:07:03.886Z,98808.40
2022-12-31T11:10:09.337Z,98796.10
2022-12-31T11:12:42.775Z,98796.54
2022-12-31T11:15:35.835Z,98793.50
2022-12-31T11:18:27.096Z,98794.16
2022-12-31T11:21:27.793Z,98777.61
2022-12-31T11:24:14.852Z,98761.16
2022-12-31T11:27:21.442Z,98753.76
2022-12-31T11:30:04.736Z,98759.42
2022-12-31T11:33:17.173Z,98758.34
2022-12-31T11:36:17.343Z,98754.80
2022-12-31T11:39:13.277Z,98758.48
2022-12-31T11:41:50.309Z,98760.90
2022-12-31T11:44:43.376Z,98764.72
2022-12-31T11:48:20.159Z,98763.36
2022-12-31T11:50:50.771Z,98760.84
2022-12-31T11:53:36.031Z,98762.26
2022-12-31T11:56:16.083Z,98762.98
2022-12-31T11:58:52.355Z,98765.53
2022-12-31T12:01:41.415Z,98764.58
2022-12-31T12:04:10.673Z,98764.33
2022-12-31T12:06:40.734Z,98763.81
2022-12-31T12:09:14.420Z,98755.13
2022-12-31T12:11:42.536Z,98753.14
2022-12-31T12:14:32.849Z,98746.70
2022-12-31T12:17:05.165Z,98751.14
2022-12-31T12:19:35.295Z,98743.64
2022-12-31T12:22:13.491Z,98743.40
2022-12-31T12:24:52.825Z,98734.83
2022-12-31T12:27:23.301Z,98727.11
2022-12-31T12:29:51.022Z,98726.38
2022-12-31T12:32:25.010Z,98721.61
2022-12-31T12:34:53.137Z,98725.30
2022-12-31T12:37:35.389Z,98717.19
2022-12-31T12:40:33.732Z,98715.91
2022-12-31T12:43:02.767Z,98719.97
2022-12-31T12:45:43.625Z,98721.81
2022-12-31T12:48:21.414Z,98724.89
2022-12-31T12:50:49.667Z,98724.09
2022-12-31T12:53:42.688Z,98718.66
2022-12-31T12:56:16.625Z,98715.84
2022-12-31T12:59:02.508Z,98721.55
2022-12-31T13:02:15.403Z,98714.73
2022-12-31T13:04:52.490Z,98721.61
2022-12-31T13:07:32.724Z,98723.98
2022-12-31T13:10:16.181Z,98722.85
2022-12-31T13:13:23.753Z,98724.43
2022-12-31T13:16:08.365Z,98730.66
2022-12-31T13:18:36.094Z,98731.26
2022-12-31T13:21:30.655Z,98737.20
2022-12-31T13:24:15.670Z,98736.18
2022-12-31T13:27:28.980Z,98733.17
2022-12-31T13:30:07.308Z,98730.05
2022-12-31T13:32:41.116Z,98733.16
2022-12-31T13:35:54.442Z,98736.48
2022-12-31T13:38:39.237Z,98735.34
2022-12-31T13:41:21.563Z,98734.33
2022-12-31T13:44:04.954Z,98741.41
2022-12-31T13:47:02.833Z,98743.89
2022-12-31T13:49:50.060Z,98751.30
2022-12-31T13:52:33.180Z,98752.58
2022-12-31T13:55:40.286Z,98755.54
2022-12-31T13:58:27.980Z,98762.80
2022-12-31T14:01:01.205Z,98759.92
2022-12-31T14:03:50.765Z,98763.34
2022-12-31T14:06:45.735Z,98768.41
2022-12-31T14:09:23.933Z,98756.91
2022-12-31T14:12:10.464Z,98762.13
2022-12-31T14:14:56.512Z,98766.24
2022-12-31T14:17:52.179Z,98767.81
2022-12-31T14:20:29.417Z,98764.77
2022-12-31T14:23:09.744Z,98763.70
2022-12-31T14:25:41.778Z,98761.37
2022-12-31T14:28:32.905Z,98761.50
2022-12-31T14:31:39.351Z,98771.30
2022-12-31T14:34:22.449Z,98768.82
2022-12-31T14:37:06.920Z,98776.55
2022-12-31T14:39:45.128Z,98771.86
2022-12-31T14:42:21.574Z,98778.13
2022-12-31T14:45:04.933Z,98777.89
2022-12-31T14:48:25.539Z,98775.28
2022-12-31T14:50:53.694Z,98772.80
2022-12-31T14:53:26.681Z,98777.20
2022-12-31T14:56:31.952Z,98780.90
2022-12-31T14:59:01.607Z,98782.70
2022-12-31T15:01:30.024Z,98781.39
2022-12-31T15:03:58.411Z,98778.33
2022-12-31T15:06:48.626Z,98783.96
2022-12-31T15:09:31.037Z,98786.41
2022-12-31T15:12:22.530Z,98779.73
2022-12-31T15:14:57.086Z,98790.69
2022-12-31T15:18:02.750Z,98791.16
2022-12-31T15:20:58.258Z,98794.51
2022-12-31T15:23:34.783Z,98799.32
2022-12-31T15:26:03.632Z,98810.32
2022-12-31T15:28:36.868Z,98805.94
2022-12-31T15:31:18.597Z,98815.48
2022-12-31T15:33:58.378Z,98820.89
2022-12-31T15:36:29.436Z,98820.71
2022-12-31T15:39:09.880Z,98821.14
2022-12-31T15:42:10.352Z,98818.25
2022-12-31T15:44:55.317Z,98813.94
2022-12-31T15:47:43.381Z,98818.91
2022-12-31T15:50:19.250Z,98806.55
2022-12-31T15:52:58.040Z,98806.66
2022-12-31T15:55:48.704Z,98812.70
2022-12-31T15:58:19.666Z,98801.40
2022-12-31T16:00:57.947Z,98807.34
2022-12-31T16:03:27.950Z,98813.13
2022-12-31T16:06:01.067Z,98812.04
2022-12-31T16:08:34.301Z,98810.60
2022-12-31T16:11:05.067Z,98813.82
2022-12-31T16:13:35.350Z,98820.23
2022-12-31T16:16:05.975Z,98821.30
2022-12-31T16:18:41.975Z,98832.55
2022-12-31T16:21:28.744Z,98837.59
2022-12-31T16:23:58.820Z,98845.52
2022-12-31T16:26:39.541Z,98844.45
2022-12-31T16:29:11.779Z,98850.19
2022-12-31T16:31:40.610Z,98850.70
2022-12-31T16:34:13.893Z,98855.98
2022-12-31T16:36:42.149Z,98855.15
2022-12-31T16:39:25.434Z,98851.00
2022-12-31T16:42:26.896Z,98850.53
2022-12-31T16:44:56.471Z,98842.71
2022-12-31T16:47:34.043Z,98845.17
2022-12-31T16:50:05.651Z,98845.42
2022-12-31T16:52:46.484Z,98847.31
2022-12-31T16:55:18.480Z,98851.84
2022-12-31T16:57:49.257Z,98855.23
2022-12-31T17:00:18.253Z,98856.73
2022-12-31T17:02:50.358Z,98856.31
2022-12-31T17:05:23.632Z,98855.53
2022-12-31T17:07:51.909Z,98850.61
2022-12-31T17:10:25.313Z,98847.21
2022-12-31T17:13:28.897Z,98837.16
2022-12-31T17:15:48.834Z,98840.55
2022-12-31T17:18:20.878Z,98844.16
2022-12-31T17:20:50.617Z,98851.61
2022-12-31T17:23:32.775Z,98852.40
2022-12-31T17:26:07.565Z,98857.52
2022-12-31T17:28:43.107Z,98862.02
2022-12-31T17:31:33.218Z,98857.63
2022-12-31T17:34:13.365Z,98852.77
2022-12-31T17:36:52.353Z,98854.75
2022-12-31T17:39:23.019Z,98859.98
2022-12-31T17:41:52.529Z,98857.42
2022-12-31T17:44:22.123Z,98851.16
2022-12-31T17:46:50.143Z,98854.11
2022-12-31T17:49:21.771Z,98858.48
2022-12-31T17:51:49.471Z,98866.03
2022-12-31T17:54:18.516Z,98869.06
2022-12-31T17:56:46.443Z,98865.29
2022-12-31T17:59:25.454Z,98864.92
2022-12-31T18:01:53.279Z,98864.42
2022-12-31T18:04:21.444Z,98863.54
2022-12-31T18:06:49.092Z,98857.48
2022-12-31T18:09:16.861Z,98857.42
2022-12-31T18:11:45.545Z,98855.81
2022-12-31T18:14:16.702Z,98869.89
2022-12-31T18:16:44.487Z,98873.38
2022-12-31T18:19:37.826Z,98877.94
2022-12-31T18:22:02.140Z,98877.84
2022-12-31T18:24:29.775Z,98875.53
2022-12-31T18:26:57.544Z,98881.22
2022-12-31T18:29:25.290Z,98880.95
2022-12-31T18:31:53.899Z,98877.84
2022-12-31T18:34:21.747Z,98884.14
2022-12-31T18:36:49.377Z,98882.05
2022-12-31T18:39:17.367Z,98881.38
2022-12-31T18:41:51.057Z,98882.88
2022-12-31T18:44:18.702Z,98885.24
2022-12-31T18:46:46.370Z,98889.16
2022-12-31T18:49:14.359Z,98897.61
2022-12-31T18:51:42.073Z,98900.38
2022-12-31T18:54:11.488Z,98901.65
2022-12-31T18:56:43.440Z,98901.14
2022-12-31T18:59:14.449Z,98895.25
2022-12-31T19:01:42.203Z,98893.41
2022-12-31T19:04:22.880Z,98898.35
2022-12-31T19:06:54.745Z,98898.15
2022-12-31T19:09:44.617Z,98905.75
2022-12-31T19:12:14.610Z,98906.86
2022-12-31T19:14:42.685Z,98916.91
2022-12-31T19:19:37.350Z,98921.42
2022-12-31T19:22:05.120Z,98916.73
2022-12-31T19:24:32.842Z,98921.48
2022-12-31T19:27:00.991Z,98924.52
2022-12-31T19:29:28.782Z,98927.64
2022-12-31T19:31:58.054Z,98933.91
2022-12-31T19:34:25.956Z,98929.84
2022-12-31T19:36:53.581Z,98929.41
2022-12-31T19:39:21.506Z,98931.85
2022-12-31T19:41:56.418Z,98926.92
2022-12-31T19:44:26.732Z,98928.94
2022-12-31T19:46:54.390Z,98930.39
2022-12-31T19:49:22.397Z,98922.90
2022-12-31T19:51:50.096Z,98905.52
2022-12-31T19:54:17.815Z,98897.80
2022-12-31T19:56:45.516Z,98888.91
2022-12-31T19:59:13.113Z,98888.29
2022-12-31T20:01:41.448Z,98886.08
2022-12-31T20:04:09.238Z,98889.07
2022-12-31T20:06:36.868Z,98888.55
2022-12-31T20:09:04.577Z,98893.77
2022-12-31T20:11:32.255Z,98902.09
2022-12-31T20:13:59.902Z,98899.20
2022-12-31T20:16:29.684Z,98896.03
2022-12-31T20:19:00.450Z,98892.96
2022-12-31T20:21:29.099Z,98887.05
2022-12-31T20:23:56.917Z,98887.11
2022-12-31T20:26:25.313Z,98897.16
2022-12-31T20:28:53.499Z,98896.36
2022-12-31T20:31:25.688Z,98905.73
2022-12-31T20:33:54.202Z,98909.95
2022-12-31T20:36:22.789Z,98911.65
2022-12-31T20:38:50.815Z,98914.73
2022-12-31T20:41:20.903Z,98913.82
2022-12-31T20:43:49.103Z,98910.70
2022-12-31T20:46:25.477Z,98916.58
2022-12-31T20:49:00.103Z,98916.85
2022-12-31T20:51:33.847Z,98923.04
2022-12-31T20:54:05.283Z,98926.48
2022-12-31T20:56:39.462Z,98926.23
2022-12-31T20:59:11.378Z,98927.89
2022-12-31T21:02:19.536Z,98923.66
2022-12-31T21:04:30.309Z,98908.67
2022-12-31T21:07:02.067Z,98905.12
2022-12-31T21:09:32.213Z,98911.77
2022-12-31T21:12:19.997Z,98916.98
2022-12-31T21:14:48.448Z,98907.50
2022-12-31T21:17:16.502Z,98907.91
2022-12-31T21:19:44.254Z,98900.77
2022-12-31T21:22:11.943Z,98907.64
2022-12-31T21:24:39.585Z,98908.16
2022-12-31T21:27:07.271Z,98910.30
2022-12-31T21:29:41.856Z,98915.86
2022-12-31T21:32:18.213Z,98915.57
2022-12-31T21:35:00.210Z,98918.52
2022-12-31T21:37:59.302Z,98920.17
2022-12-31T21:40:21.237Z,98919.30
2022-12-31T21:42:48.861Z,98909.45
2022-12-31T21:45:16.641Z,98902.59
2022-12-31T21:48:02.909Z,98906.85
2022-12-31T21:50:30.585Z,98906.59
2022-12-31T21:52:58.255Z,98900.13
2022-12-31T21:55:44.695Z,98907.67
2022-12-31T21:58:28.467Z,98916.02
2022-12-31T22:01:16.443Z,98912.92
2022-12-31T22:03:44.726Z,98906.98
2022-12-31T22:06:16.283Z,98904.50
2022-12-31T22:08:47.258Z,98908.42
2022-12-31T22:11:16.309Z,98910.10
2022-12-31T22:13:44.498Z,98913.86
2022-12-31T22:16:13.961Z,98916.98
2022-12-31T22:18:44.055Z,98915.30
2022-12-31T22:21:20.743Z,98922.27
2022-12-31T22:23:54.410Z,98924.02
2022-12-31T22:26:27.484Z,98924.05
2022-12-31T22:28:59.269Z,98929.27
2022-12-31T22:31:30.070Z,98929.42
2022-12-31T22:33:58.811Z,98935.55
2022-12-31T22:36:26.791Z,98933.13
2022-12-31T22:38:57.277Z,98937.74
2022-12-31T22:41:25.939Z,98940.15
2022-12-31T22:44:02.719Z,98935.01
2022-12-31T22:46:31.567Z,98933.77
2022-12-31T22:49:00.840Z,98931.65
2022-12-31T22:51:56.046Z,98926.92
2022-12-31T22:54:17.824Z,98932.59
2022-12-31T22:56:45.435Z,98933.17
2022-12-31T22:59:13.319Z,98929.06
2022-12-31T23:01:41.142Z,98921.15
2022-12-31T23:04:09.273Z,98920.17
2022-12-31T23:06:43.461Z,98917.89
2022-12-31T23:09:31.156Z,98918.37
2022-12-31T23:11:58.978Z,98923.25
2022-12-31T23:14:45.409Z,98924.05
2022-12-31T23:17:34.439Z,98919.02
2022-12-31T23:20:22.423Z,98922.73
2022-12-31T23:23:08.973Z,98929.92
2022-12-31T23:25:42.647Z,98921.73
2022-12-31T23:28:28.517Z,98918.59
2022-12-31T23:30:56.263Z,98921.45
2022-12-31T23:33:25.580Z,98923.38
2022-12-31T23:36:03.229Z,98925.70
2022-12-31T23:38:30.904Z,98923.57
2022-12-31T23:40:58.533Z,98924.69
2022-12-31T23:43:26.663Z,98927.20
2022-12-31T23:45:54.329Z,98921.92
2022-12-31T23:48:21.969Z,98923.70
2022-12-31T23:50:53.455Z,98921.08
2022-12-31T23:53:23.458Z,98926.11
2022-12-31T23:55:52.016Z,98931.75
2022-12-31T23:58:21.059Z,98935.52
